Meath Environmental Platform

Observations for Trim Patrick St

Time AQI Temp °C Hum % Pres Pa CO μg/m³ H₂S μg/m³ NO μg/m³ NO₂ μg/m³ O₃ μg/m³ SO₂ μg/m³ PM1 μg/m³ PM2.5 μg/m³ PM10 μg/m³
Thursday 27 August 2026
08:48 2 19.3 82 38,460 0.17 0 1.44 18.24 35.51 0 24.29 33.65 35.58
08:46 2 19.2 82 38,460 0.17 0 2.03 15.89 34.92 0 25.14 34.98 37.46
08:45 2 19.1 82 38,460 0.18 0 2.04 15.02 33.26 0 23.43 32.86 35.36
08:44 2 19.1 82 38,460 0.25 0.82 2.88 20.63 33.14 0 25.14 34.24 38.02
08:42 2 19 83 38,460 0.2 1.66 1.22 37.38 25.92 0.4 26 34.89 38.57
08:38 2 18.9 83 38,460 0.16 0.38 1.77 15.04 36.78 0 22.57 32.83 35.29
08:37 2 18.8 83 38,460 0.19 0.64 1.81 23.6 33.22 0 24.29 34.21 35.92
08:36 2 18.8 83 38,460 0.19 0.28 3.13 35.77 24.61 0 26 35.52 37.74
08:35 2 18.8 83 38,460 0.17 0 3.17 19.34 31.97 0 22.57 33.42 35.7
08:34 2 18.8 83 38,460 0.16 0 1.76 13.27 35.73 0 25.14 35.49 39
08:33 2 18.7 84 38,460 0.16 0 1.24 15.52 32.23 0 24.29 34.76 37.59
08:32 2 18.7 83 38,460 0.17 0.07 1.07 24.96 33.09 0 26 36.18 39.67
08:31 2 18.6 84 38,460 0.18 0 1.2 21.39 31.37 0 24.29 34.07 36.92
08:30 2 18.6 82 38,460 0.17 0 0.97 20.23 46.78 0 25.14 36.32 40.04
08:29 2 18.6 84 38,460 0.17 0 0.92 13.35 38.8 0 22.57 32.62 33.45
08:28 2 18.6 84 38,460 0.17 0 1.11 13.05 36.72 0 25.14 34.68 36.07
08:27 2 18.5 84 38,460 0.15 0 1.61 19.28 31.16 0 24.29 33.29 35.37
08:26 2 18.5 84 38,460 0.17 1.12 1.16 21.19 28.98 0 23.43 33.99 36.07
08:25 2 18.4 84 38,460 0.17 1.62 1.62 38.68 33.05 0 25.14 35.39 38.76
08:24 2 18.4 84 38,460 0.16 0.34 1.21 18.77 36.03 0 22.57 31.86 33.28